sensor_id;sensor_type;location;lat;lon;timestamp;P1;durP1;ratioP1;P2;durP2;ratioP2
12625;SDS011;6378;42.684;23.372;2024-02-14T00:01:51;8.57;;;7.53;;
12625;SDS011;6378;42.684;23.372;2024-02-14T00:04:17;10.87;;;8.40;;
12625;SDS011;6378;42.684;23.372;2024-02-14T00:06:43;10.43;;;7.70;;
12625;SDS011;6378;42.684;23.372;2024-02-14T00:09:10;12.30;;;8.07;;
12625;SDS011;6378;42.684;23.372;2024-02-14T00:11:36;10.30;;;8.00;;
12625;SDS011;6378;42.684;23.372;2024-02-14T00:14:02;10.33;;;7.57;;
12625;SDS011;6378;42.684;23.372;2024-02-14T00:16:27;10.50;;;8.20;;
12625;SDS011;6378;42.684;23.372;2024-02-14T00:18:55;9.03;;;7.80;;
12625;SDS011;6378;42.684;23.372;2024-02-14T00:21:22;9.47;;;7.50;;
12625;SDS011;6378;42.684;23.372;2024-02-14T00:23:47;10.17;;;8.00;;
12625;SDS011;6378;42.684;23.372;2024-02-14T00:26:13;10.63;;;7.63;;
12625;SDS011;6378;42.684;23.372;2024-02-14T00:28:38;11.33;;;8.33;;
12625;SDS011;6378;42.684;23.372;2024-02-14T00:31:04;9.60;;;8.23;;
12625;SDS011;6378;42.684;23.372;2024-02-14T00:33:31;9.33;;;7.60;;
12625;SDS011;6378;42.684;23.372;2024-02-14T00:35:56;13.20;;;8.70;;
12625;SDS011;6378;42.684;23.372;2024-02-14T00:38:22;9.83;;;7.93;;
12625;SDS011;6378;42.684;23.372;2024-02-14T00:40:47;10.73;;;8.43;;
12625;SDS011;6378;42.684;23.372;2024-02-14T00:43:13;11.23;;;9.00;;
12625;SDS011;6378;42.684;23.372;2024-02-14T00:45:39;9.90;;;8.07;;
12625;SDS011;6378;42.684;23.372;2024-02-14T00:48:05;10.40;;;7.87;;
12625;SDS011;6378;42.684;23.372;2024-02-14T00:50:32;9.77;;;8.13;;
12625;SDS011;6378;42.684;23.372;2024-02-14T00:52:58;10.20;;;8.50;;
12625;SDS011;6378;42.684;23.372;2024-02-14T00:55:24;10.30;;;8.87;;
12625;SDS011;6378;42.684;23.372;2024-02-14T00:57:49;11.20;;;8.47;;
12625;SDS011;6378;42.684;23.372;2024-02-14T01:00:15;8.83;;;7.83;;
12625;SDS011;6378;42.684;23.372;2024-02-14T01:02:42;8.83;;;7.50;;
12625;SDS011;6378;42.684;23.372;2024-02-14T01:05:08;11.43;;;8.60;;
12625;SDS011;6378;42.684;23.372;2024-02-14T01:07:34;12.33;;;9.03;;
12625;SDS011;6378;42.684;23.372;2024-02-14T01:10:00;12.20;;;8.67;;
12625;SDS011;6378;42.684;23.372;2024-02-14T01:12:26;10.03;;;8.13;;
12625;SDS011;6378;42.684;23.372;2024-02-14T01:14:51;11.03;;;8.20;;
12625;SDS011;6378;42.684;23.372;2024-02-14T01:17:17;10.93;;;9.03;;
12625;SDS011;6378;42.684;23.372;2024-02-14T01:19:43;11.60;;;9.00;;
12625;SDS011;6378;42.684;23.372;2024-02-14T01:22:09;11.37;;;8.63;;
12625;SDS011;6378;42.684;23.372;2024-02-14T01:24:34;12.93;;;9.13;;
12625;SDS011;6378;42.684;23.372;2024-02-14T01:27:00;11.13;;;8.93;;
12625;SDS011;6378;42.684;23.372;2024-02-14T01:29:25;17.07;;;9.63;;
12625;SDS011;6378;42.684;23.372;2024-02-14T01:31:52;11.90;;;8.20;;
12625;SDS011;6378;42.684;23.372;2024-02-14T01:34:17;11.43;;;9.27;;
12625;SDS011;6378;42.684;23.372;2024-02-14T01:36:43;10.90;;;9.20;;
12625;SDS011;6378;42.684;23.372;2024-02-14T01:39:08;11.97;;;9.00;;
12625;SDS011;6378;42.684;23.372;2024-02-14T01:41:36;12.37;;;8.87;;
12625;SDS011;6378;42.684;23.372;2024-02-14T01:44:03;14.37;;;8.93;;
12625;SDS011;6378;42.684;23.372;2024-02-14T01:46:29;11.77;;;9.53;;
12625;SDS011;6378;42.684;23.372;2024-02-14T01:48:55;12.27;;;9.63;;
12625;SDS011;6378;42.684;23.372;2024-02-14T01:51:22;12.20;;;9.57;;
12625;SDS011;6378;42.684;23.372;2024-02-14T01:53:50;12.07;;;9.23;;
12625;SDS011;6378;42.684;23.372;2024-02-14T01:56:17;12.03;;;9.57;;
12625;SDS011;6378;42.684;23.372;2024-02-14T01:58:43;11.47;;;9.43;;
12625;SDS011;6378;42.684;23.372;2024-02-14T02:01:10;11.70;;;9.13;;
12625;SDS011;6378;42.684;23.372;2024-02-14T02:03:37;12.47;;;9.47;;
12625;SDS011;6378;42.684;23.372;2024-02-14T02:06:03;10.73;;;8.93;;
12625;SDS011;6378;42.684;23.372;2024-02-14T02:08:30;12.23;;;9.77;;
12625;SDS011;6378;42.684;23.372;2024-02-14T02:10:57;12.90;;;9.77;;
12625;SDS011;6378;42.684;23.372;2024-02-14T02:13:23;13.17;;;9.43;;
12625;SDS011;6378;42.684;23.372;2024-02-14T02:15:48;13.27;;;9.57;;
12625;SDS011;6378;42.684;23.372;2024-02-14T02:18:14;13.03;;;9.47;;
12625;SDS011;6378;42.684;23.372;2024-02-14T02:20:40;16.10;;;10.33;;
12625;SDS011;6378;42.684;23.372;2024-02-14T02:23:07;11.67;;;9.07;;
12625;SDS011;6378;42.684;23.372;2024-02-14T02:25:34;12.27;;;9.80;;
12625;SDS011;6378;42.684;23.372;2024-02-14T02:28:00;14.67;;;10.53;;
12625;SDS011;6378;42.684;23.372;2024-02-14T02:30:25;12.97;;;9.63;;
12625;SDS011;6378;42.684;23.372;2024-02-14T02:32:52;12.77;;;9.70;;
12625;SDS011;6378;42.684;23.372;2024-02-14T02:35:17;13.10;;;10.23;;
12625;SDS011;6378;42.684;23.372;2024-02-14T02:37:46;12.63;;;9.57;;
12625;SDS011;6378;42.684;23.372;2024-02-14T02:40:13;11.67;;;9.33;;
12625;SDS011;6378;42.684;23.372;2024-02-14T02:42:40;14.63;;;9.93;;
12625;SDS011;6378;42.684;23.372;2024-02-14T02:45:05;11.93;;;9.37;;
12625;SDS011;6378;42.684;23.372;2024-02-14T02:47:31;12.40;;;9.87;;
12625;SDS011;6378;42.684;23.372;2024-02-14T02:49:57;12.10;;;9.70;;
12625;SDS011;6378;42.684;23.372;2024-02-14T02:52:26;14.43;;;9.60;;
12625;SDS011;6378;42.684;23.372;2024-02-14T02:54:53;13.13;;;9.63;;
12625;SDS011;6378;42.684;23.372;2024-02-14T02:57:19;12.23;;;9.77;;
12625;SDS011;6378;42.684;23.372;2024-02-14T02:59:44;14.13;;;10.40;;
12625;SDS011;6378;42.684;23.372;2024-02-14T03:02:12;12.50;;;9.40;;
12625;SDS011;6378;42.684;23.372;2024-02-14T03:04:38;11.30;;;9.23;;
12625;SDS011;6378;42.684;23.372;2024-02-14T03:07:04;15.97;;;11.07;;
12625;SDS011;6378;42.684;23.372;2024-02-14T03:09:32;12.40;;;10.17;;
12625;SDS011;6378;42.684;23.372;2024-02-14T03:11:58;13.40;;;10.10;;
12625;SDS011;6378;42.684;23.372;2024-02-14T03:14:23;15.27;;;10.97;;
12625;SDS011;6378;42.684;23.372;2024-02-14T03:16:49;12.63;;;9.90;;
12625;SDS011;6378;42.684;23.372;2024-02-14T03:19:14;13.57;;;10.07;;
12625;SDS011;6378;42.684;23.372;2024-02-14T03:21:40;12.97;;;10.03;;
12625;SDS011;6378;42.684;23.372;2024-02-14T03:24:05;15.00;;;10.80;;
12625;SDS011;6378;42.684;23.372;2024-02-14T03:26:34;12.77;;;9.90;;
12625;SDS011;6378;42.684;23.372;2024-02-14T03:29:01;12.77;;;10.00;;
12625;SDS011;6378;42.684;23.372;2024-02-14T03:31:27;11.83;;;9.83;;
12625;SDS011;6378;42.684;23.372;2024-02-14T03:33:52;12.13;;;10.30;;
12625;SDS011;6378;42.684;23.372;2024-02-14T03:36:19;13.50;;;10.37;;
12625;SDS011;6378;42.684;23.372;2024-02-14T03:38:44;13.47;;;10.67;;
12625;SDS011;6378;42.684;23.372;2024-02-14T03:41:11;14.63;;;11.30;;
12625;SDS011;6378;42.684;23.372;2024-02-14T03:43:38;15.37;;;10.27;;
12625;SDS011;6378;42.684;23.372;2024-02-14T03:46:03;14.13;;;10.43;;
12625;SDS011;6378;42.684;23.372;2024-02-14T03:48:30;12.57;;;10.53;;
12625;SDS011;6378;42.684;23.372;2024-02-14T03:50:56;14.57;;;11.30;;
12625;SDS011;6378;42.684;23.372;2024-02-14T03:53:22;14.17;;;11.00;;
12625;SDS011;6378;42.684;23.372;2024-02-14T03:55:48;15.40;;;11.60;;
12625;SDS011;6378;42.684;23.372;2024-02-14T03:58:14;13.67;;;10.93;;
12625;SDS011;6378;42.684;23.372;2024-02-14T04:00:42;12.37;;;10.07;;
12625;SDS011;6378;42.684;23.372;2024-02-14T04:03:11;13.80;;;10.90;;
12625;SDS011;6378;42.684;23.372;2024-02-14T04:05:37;14.03;;;11.20;;
12625;SDS011;6378;42.684;23.372;2024-02-14T04:08:03;15.47;;;11.17;;
12625;SDS011;6378;42.684;23.372;2024-02-14T04:10:29;13.13;;;10.00;;
12625;SDS011;6378;42.684;23.372;2024-02-14T04:12:54;12.63;;;10.60;;
12625;SDS011;6378;42.684;23.372;2024-02-14T04:15:20;14.60;;;10.73;;
12625;SDS011;6378;42.684;23.372;2024-02-14T04:17:45;14.00;;;10.77;;
12625;SDS011;6378;42.684;23.372;2024-02-14T04:20:11;15.17;;;11.70;;
12625;SDS011;6378;42.684;23.372;2024-02-14T04:22:36;16.53;;;11.87;;
12625;SDS011;6378;42.684;23.372;2024-02-14T04:25:02;14.47;;;11.37;;
12625;SDS011;6378;42.684;23.372;2024-02-14T04:27:27;13.77;;;10.70;;
12625;SDS011;6378;42.684;23.372;2024-02-14T04:29:53;14.90;;;11.93;;
12625;SDS011;6378;42.684;23.372;2024-02-14T04:32:18;16.90;;;12.03;;
12625;SDS011;6378;42.684;23.372;2024-02-14T04:34:44;15.73;;;12.10;;
12625;SDS011;6378;42.684;23.372;2024-02-14T04:37:10;15.73;;;12.57;;
12625;SDS011;6378;42.684;23.372;2024-02-14T04:39:38;15.17;;;11.90;;
12625;SDS011;6378;42.684;23.372;2024-02-14T04:42:07;15.70;;;12.27;;
12625;SDS011;6378;42.684;23.372;2024-02-14T04:44:33;19.20;;;12.73;;
12625;SDS011;6378;42.684;23.372;2024-02-14T04:46:59;18.10;;;13.17;;
12625;SDS011;6378;42.684;23.372;2024-02-14T04:49:25;17.43;;;12.20;;
12625;SDS011;6378;42.684;23.372;2024-02-14T04:51:51;16.40;;;12.70;;
12625;SDS011;6378;42.684;23.372;2024-02-14T04:54:17;18.13;;;13.43;;
12625;SDS011;6378;42.684;23.372;2024-02-14T04:56:43;17.50;;;12.70;;
12625;SDS011;6378;42.684;23.372;2024-02-14T04:59:10;18.60;;;13.23;;
12625;SDS011;6378;42.684;23.372;2024-02-14T05:01:36;18.10;;;12.87;;
12625;SDS011;6378;42.684;23.372;2024-02-14T05:04:01;18.33;;;12.53;;
12625;SDS011;6378;42.684;23.372;2024-02-14T05:06:29;18.40;;;13.67;;
12625;SDS011;6378;42.684;23.372;2024-02-14T05:08:55;17.50;;;12.97;;
12625;SDS011;6378;42.684;23.372;2024-02-14T05:11:20;19.40;;;13.70;;
12625;SDS011;6378;42.684;23.372;2024-02-14T05:13:46;20.43;;;14.37;;
12625;SDS011;6378;42.684;23.372;2024-02-14T05:16:12;19.03;;;14.50;;
12625;SDS011;6378;42.684;23.372;2024-02-14T05:18:38;16.50;;;13.43;;
12625;SDS011;6378;42.684;23.372;2024-02-14T05:21:07;19.63;;;13.97;;
12625;SDS011;6378;42.684;23.372;2024-02-14T05:23:33;17.87;;;13.97;;
12625;SDS011;6378;42.684;23.372;2024-02-14T05:26:00;18.17;;;13.17;;
12625;SDS011;6378;42.684;23.372;2024-02-14T05:28:27;19.50;;;14.53;;
12625;SDS011;6378;42.684;23.372;2024-02-14T05:30:53;18.80;;;14.30;;
12625;SDS011;6378;42.684;23.372;2024-02-14T05:33:19;18.93;;;14.40;;
12625;SDS011;6378;42.684;23.372;2024-02-14T05:35:47;23.47;;;14.83;;
12625;SDS011;6378;42.684;23.372;2024-02-14T05:38:13;19.00;;;14.40;;
12625;SDS011;6378;42.684;23.372;2024-02-14T05:40:39;20.70;;;14.63;;
12625;SDS011;6378;42.684;23.372;2024-02-14T05:43:05;18.00;;;14.13;;
12625;SDS011;6378;42.684;23.372;2024-02-14T05:45:32;19.43;;;14.60;;
12625;SDS011;6378;42.684;23.372;2024-02-14T05:47:58;19.60;;;14.50;;
12625;SDS011;6378;42.684;23.372;2024-02-14T05:50:24;19.20;;;14.23;;
12625;SDS011;6378;42.684;23.372;2024-02-14T05:52:49;19.73;;;15.03;;
12625;SDS011;6378;42.684;23.372;2024-02-14T05:55:15;17.97;;;14.20;;
12625;SDS011;6378;42.684;23.372;2024-02-14T05:57:40;19.33;;;14.37;;
12625;SDS011;6378;42.684;23.372;2024-02-14T06:00:06;19.70;;;14.73;;
12625;SDS011;6378;42.684;23.372;2024-02-14T06:02:34;23.57;;;15.53;;
12625;SDS011;6378;42.684;23.372;2024-02-14T06:04:59;18.83;;;14.77;;
12625;SDS011;6378;42.684;23.372;2024-02-14T06:07:25;20.27;;;14.40;;
12625;SDS011;6378;42.684;23.372;2024-02-14T06:09:50;20.13;;;15.17;;
12625;SDS011;6378;42.684;23.372;2024-02-14T06:12:16;20.00;;;14.70;;
12625;SDS011;6378;42.684;23.372;2024-02-14T06:14:41;17.97;;;14.20;;
12625;SDS011;6378;42.684;23.372;2024-02-14T06:17:07;20.03;;;14.13;;
12625;SDS011;6378;42.684;23.372;2024-02-14T06:19:33;19.07;;;14.93;;
12625;SDS011;6378;42.684;23.372;2024-02-14T06:22:00;17.40;;;13.30;;
12625;SDS011;6378;42.684;23.372;2024-02-14T06:24:25;20.97;;;14.60;;
12625;SDS011;6378;42.684;23.372;2024-02-14T06:26:51;18.73;;;14.27;;
12625;SDS011;6378;42.684;23.372;2024-02-14T06:29:17;18.13;;;14.27;;
12625;SDS011;6378;42.684;23.372;2024-02-14T06:31:42;20.67;;;13.80;;
12625;SDS011;6378;42.684;23.372;2024-02-14T06:34:07;18.77;;;13.87;;
12625;SDS011;6378;42.684;23.372;2024-02-14T06:36:33;16.60;;;13.47;;
12625;SDS011;6378;42.684;23.372;2024-02-14T06:38:59;19.73;;;14.30;;
12625;SDS011;6378;42.684;23.372;2024-02-14T06:41:24;17.23;;;13.43;;
12625;SDS011;6378;42.684;23.372;2024-02-14T06:43:50;16.33;;;12.37;;
12625;SDS011;6378;42.684;23.372;2024-02-14T06:46:16;16.70;;;12.57;;
12625;SDS011;6378;42.684;23.372;2024-02-14T06:48:41;16.47;;;13.30;;
12625;SDS011;6378;42.684;23.372;2024-02-14T06:51:07;22.07;;;14.00;;
12625;SDS011;6378;42.684;23.372;2024-02-14T06:53:33;17.90;;;13.53;;
12625;SDS011;6378;42.684;23.372;2024-02-14T06:55:58;18.63;;;12.50;;
12625;SDS011;6378;42.684;23.372;2024-02-14T06:58:24;16.00;;;13.27;;
12625;SDS011;6378;42.684;23.372;2024-02-14T07:00:49;17.10;;;13.27;;
12625;SDS011;6378;42.684;23.372;2024-02-14T07:03:15;16.60;;;12.17;;
12625;SDS011;6378;42.684;23.372;2024-02-14T07:05:41;19.00;;;12.77;;
12625;SDS011;6378;42.684;23.372;2024-02-14T07:08:07;17.17;;;13.20;;
12625;SDS011;6378;42.684;23.372;2024-02-14T07:10:32;16.73;;;12.57;;
12625;SDS011;6378;42.684;23.372;2024-02-14T07:12:58;16.67;;;11.50;;
12625;SDS011;6378;42.684;23.372;2024-02-14T07:15:24;17.17;;;12.00;;
12625;SDS011;6378;42.684;23.372;2024-02-14T07:17:53;19.40;;;13.37;;
12625;SDS011;6378;42.684;23.372;2024-02-14T07:20:20;20.13;;;13.33;;
12625;SDS011;6378;42.684;23.372;2024-02-14T07:22:50;17.30;;;12.43;;
12625;SDS011;6378;42.684;23.372;2024-02-14T07:25:18;18.93;;;11.63;;
12625;SDS011;6378;42.684;23.372;2024-02-14T07:27:44;16.10;;;11.90;;
12625;SDS011;6378;42.684;23.372;2024-02-14T07:30:11;15.87;;;11.33;;
12625;SDS011;6378;42.684;23.372;2024-02-14T07:32:37;13.50;;;11.00;;
12625;SDS011;6378;42.684;23.372;2024-02-14T07:35:03;13.37;;;10.00;;
12625;SDS011;6378;42.684;23.372;2024-02-14T07:37:30;17.00;;;11.97;;
12625;SDS011;6378;42.684;23.372;2024-02-14T07:39:56;15.97;;;11.50;;
12625;SDS011;6378;42.684;23.372;2024-02-14T07:42:21;15.00;;;11.67;;
12625;SDS011;6378;42.684;23.372;2024-02-14T07:44:47;17.43;;;11.23;;
12625;SDS011;6378;42.684;23.372;2024-02-14T07:47:12;12.77;;;10.60;;
12625;SDS011;6378;42.684;23.372;2024-02-14T07:49:39;13.93;;;10.97;;
12625;SDS011;6378;42.684;23.372;2024-02-14T07:52:05;16.03;;;11.53;;
12625;SDS011;6378;42.684;23.372;2024-02-14T07:54:31;15.20;;;10.90;;
12625;SDS011;6378;42.684;23.372;2024-02-14T07:56:56;14.73;;;11.00;;
12625;SDS011;6378;42.684;23.372;2024-02-14T07:59:22;16.17;;;12.10;;
12625;SDS011;6378;42.684;23.372;2024-02-14T08:01:47;12.97;;;10.60;;
12625;SDS011;6378;42.684;23.372;2024-02-14T08:04:13;13.63;;;10.10;;
12625;SDS011;6378;42.684;23.372;2024-02-14T08:06:38;13.63;;;8.67;;
12625;SDS011;6378;42.684;23.372;2024-02-14T08:09:04;17.87;;;10.70;;
12625;SDS011;6378;42.684;23.372;2024-02-14T08:11:31;12.60;;;9.90;;
12625;SDS011;6378;42.684;23.372;2024-02-14T08:13:57;13.73;;;9.97;;
12625;SDS011;6378;42.684;23.372;2024-02-14T08:16:23;15.60;;;10.83;;
12625;SDS011;6378;42.684;23.372;2024-02-14T08:18:49;13.40;;;11.03;;
12625;SDS011;6378;42.684;23.372;2024-02-14T08:21:16;13.63;;;11.20;;
12625;SDS011;6378;42.684;23.372;2024-02-14T08:23:41;15.30;;;11.17;;
12625;SDS011;6378;42.684;23.372;2024-02-14T08:26:08;14.93;;;11.50;;
12625;SDS011;6378;42.684;23.372;2024-02-14T08:28:38;15.30;;;11.00;;
12625;SDS011;6378;42.684;23.372;2024-02-14T08:31:09;13.47;;;9.83;;
12625;SDS011;6378;42.684;23.372;2024-02-14T08:33:35;13.33;;;10.63;;
12625;SDS011;6378;42.684;23.372;2024-02-14T08:36:01;13.67;;;11.53;;
12625;SDS011;6378;42.684;23.372;2024-02-14T08:38:28;14.27;;;10.40;;
12625;SDS011;6378;42.684;23.372;2024-02-14T08:40:53;15.73;;;11.67;;
12625;SDS011;6378;42.684;23.372;2024-02-14T08:43:19;13.57;;;10.50;;
12625;SDS011;6378;42.684;23.372;2024-02-14T08:45:44;13.67;;;10.57;;
12625;SDS011;6378;42.684;23.372;2024-02-14T08:48:10;14.40;;;10.93;;
12625;SDS011;6378;42.684;23.372;2024-02-14T08:50:35;14.03;;;10.10;;
12625;SDS011;6378;42.684;23.372;2024-02-14T08:53:01;13.70;;;10.30;;
12625;SDS011;6378;42.684;23.372;2024-02-14T08:55:27;16.50;;;11.97;;
12625;SDS011;6378;42.684;23.372;2024-02-14T08:57:52;15.30;;;11.60;;
12625;SDS011;6378;42.684;23.372;2024-02-14T09:00:18;11.77;;;9.87;;
12625;SDS011;6378;42.684;23.372;2024-02-14T09:02:47;14.87;;;10.83;;
12625;SDS011;6378;42.684;23.372;2024-02-14T09:05:13;13.97;;;10.73;;
12625;SDS011;6378;42.684;23.372;2024-02-14T09:07:39;15.43;;;11.23;;
12625;SDS011;6378;42.684;23.372;2024-02-14T09:10:06;13.63;;;10.87;;
12625;SDS011;6378;42.684;23.372;2024-02-14T09:12:32;13.57;;;10.47;;
12625;SDS011;6378;42.684;23.372;2024-02-14T09:14:58;15.73;;;11.07;;
12625;SDS011;6378;42.684;23.372;2024-02-14T09:17:24;13.43;;;9.63;;
12625;SDS011;6378;42.684;23.372;2024-02-14T09:19:49;15.07;;;10.63;;
12625;SDS011;6378;42.684;23.372;2024-02-14T09:22:16;12.80;;;10.10;;
12625;SDS011;6378;42.684;23.372;2024-02-14T09:24:46;11.87;;;9.97;;
12625;SDS011;6378;42.684;23.372;2024-02-14T09:27:13;19.03;;;12.90;;
12625;SDS011;6378;42.684;23.372;2024-02-14T09:29:39;18.70;;;15.53;;
12625;SDS011;6378;42.684;23.372;2024-02-14T09:32:04;19.17;;;15.27;;
12625;SDS011;6378;42.684;23.372;2024-02-14T09:34:30;13.83;;;11.63;;
12625;SDS011;6378;42.684;23.372;2024-02-14T09:36:56;13.80;;;10.50;;
12625;SDS011;6378;42.684;23.372;2024-02-14T09:39:23;13.30;;;9.73;;
12625;SDS011;6378;42.684;23.372;2024-02-14T09:41:54;15.60;;;11.70;;
12625;SDS011;6378;42.684;23.372;2024-02-14T09:44:24;14.03;;;10.03;;
12625;SDS011;6378;42.684;23.372;2024-02-14T09:46:56;16.27;;;10.20;;
12625;SDS011;6378;42.684;23.372;2024-02-14T09:49:22;14.03;;;10.00;;
12625;SDS011;6378;42.684;23.372;2024-02-14T09:51:49;12.47;;;9.47;;
12625;SDS011;6378;42.684;23.372;2024-02-14T09:54:17;11.27;;;8.30;;
12625;SDS011;6378;42.684;23.372;2024-02-14T09:56:47;19.80;;;13.90;;
12625;SDS011;6378;42.684;23.372;2024-02-14T09:59:15;17.03;;;11.63;;
12625;SDS011;6378;42.684;23.372;2024-02-14T10:01:42;14.07;;;11.27;;
12625;SDS011;6378;42.684;23.372;2024-02-14T10:04:08;14.23;;;10.20;;
12625;SDS011;6378;42.684;23.372;2024-02-14T10:06:35;14.10;;;10.70;;
12625;SDS011;6378;42.684;23.372;2024-02-14T10:09:22;11.60;;;9.70;;
12625;SDS011;6378;42.684;23.372;2024-02-14T10:11:48;13.33;;;10.10;;
12625;SDS011;6378;42.684;23.372;2024-02-14T10:14:14;12.20;;;10.17;;
12625;SDS011;6378;42.684;23.372;2024-02-14T10:16:40;12.80;;;9.17;;
12625;SDS011;6378;42.684;23.372;2024-02-14T10:19:14;13.73;;;9.77;;
12625;SDS011;6378;42.684;23.372;2024-02-14T10:21:40;13.33;;;10.33;;
12625;SDS011;6378;42.684;23.372;2024-02-14T10:24:05;13.27;;;10.10;;
12625;SDS011;6378;42.684;23.372;2024-02-14T10:26:32;13.60;;;10.37;;
12625;SDS011;6378;42.684;23.372;2024-02-14T10:28:59;15.40;;;10.53;;
12625;SDS011;6378;42.684;23.372;2024-02-14T10:31:25;11.97;;;8.60;;
12625;SDS011;6378;42.684;23.372;2024-02-14T10:33:54;12.40;;;9.83;;
12625;SDS011;6378;42.684;23.372;2024-02-14T10:36:23;14.07;;;9.80;;
12625;SDS011;6378;42.684;23.372;2024-02-14T10:38:50;15.30;;;10.07;;
12625;SDS011;6378;42.684;23.372;2024-02-14T10:41:19;15.47;;;11.70;;
12625;SDS011;6378;42.684;23.372;2024-02-14T10:43:44;13.20;;;8.80;;
12625;SDS011;6378;42.684;23.372;2024-02-14T10:46:20;13.27;;;9.50;;
12625;SDS011;6378;42.684;23.372;2024-02-14T10:48:47;12.33;;;7.93;;
12625;SDS011;6378;42.684;23.372;2024-02-14T10:51:14;12.43;;;9.30;;
12625;SDS011;6378;42.684;23.372;2024-02-14T10:53:41;12.53;;;8.60;;
12625;SDS011;6378;42.684;23.372;2024-02-14T10:56:11;10.70;;;8.83;;
12625;SDS011;6378;42.684;23.372;2024-02-14T10:58:42;11.40;;;9.07;;
12625;SDS011;6378;42.684;23.372;2024-02-14T11:01:10;11.00;;;9.03;;
12625;SDS011;6378;42.684;23.372;2024-02-14T11:03:36;12.50;;;9.87;;
12625;SDS011;6378;42.684;23.372;2024-02-14T11:06:02;11.27;;;9.23;;
12625;SDS011;6378;42.684;23.372;2024-02-14T11:08:29;12.03;;;9.03;;
12625;SDS011;6378;42.684;23.372;2024-02-14T11:10:58;11.57;;;9.07;;
12625;SDS011;6378;42.684;23.372;2024-02-14T11:13:30;11.70;;;8.67;;
12625;SDS011;6378;42.684;23.372;2024-02-14T11:16:00;11.63;;;9.10;;
12625;SDS011;6378;42.684;23.372;2024-02-14T11:18:27;12.83;;;9.27;;
12625;SDS011;6378;42.684;23.372;2024-02-14T11:21:02;12.80;;;9.80;;
12625;SDS011;6378;42.684;23.372;2024-02-14T11:23:29;15.10;;;10.87;;
12625;SDS011;6378;42.684;23.372;2024-02-14T11:25:59;17.17;;;10.23;;
12625;SDS011;6378;42.684;23.372;2024-02-14T11:28:28;13.43;;;9.43;;
12625;SDS011;6378;42.684;23.372;2024-02-14T11:30:58;12.50;;;9.13;;
12625;SDS011;6378;42.684;23.372;2024-02-14T11:33:28;12.73;;;9.23;;
12625;SDS011;6378;42.684;23.372;2024-02-14T11:35:54;12.57;;;9.13;;
12625;SDS011;6378;42.684;23.372;2024-02-14T11:38:24;11.10;;;9.07;;
12625;SDS011;6378;42.684;23.372;2024-02-14T11:40:55;13.67;;;9.57;;
12625;SDS011;6378;42.684;23.372;2024-02-14T11:43:24;12.43;;;9.87;;
12625;SDS011;6378;42.684;23.372;2024-02-14T11:45:50;11.67;;;9.43;;
12625;SDS011;6378;42.684;23.372;2024-02-14T11:48:17;14.07;;;9.60;;
12625;SDS011;6378;42.684;23.372;2024-02-14T11:50:44;11.63;;;8.33;;
12625;SDS011;6378;42.684;23.372;2024-02-14T11:53:11;12.63;;;9.27;;
12625;SDS011;6378;42.684;23.372;2024-02-14T11:55:38;12.07;;;9.63;;
12625;SDS011;6378;42.684;23.372;2024-02-14T11:58:11;12.57;;;9.70;;
12625;SDS011;6378;42.684;23.372;2024-02-14T12:00:38;13.17;;;9.73;;
12625;SDS011;6378;42.684;23.372;2024-02-14T12:03:09;11.80;;;9.37;;
12625;SDS011;6378;42.684;23.372;2024-02-14T12:05:37;13.27;;;9.83;;
12625;SDS011;6378;42.684;23.372;2024-02-14T12:08:06;12.03;;;9.60;;
12625;SDS011;6378;42.684;23.372;2024-02-14T12:10:32;15.63;;;10.47;;
12625;SDS011;6378;42.684;23.372;2024-02-14T12:13:10;12.77;;;9.60;;
12625;SDS011;6378;42.684;23.372;2024-02-14T12:15:45;13.67;;;9.43;;
12625;SDS011;6378;42.684;23.372;2024-02-14T12:18:11;13.80;;;9.53;;
12625;SDS011;6378;42.684;23.372;2024-02-14T12:20:40;12.17;;;9.20;;
12625;SDS011;6378;42.684;23.372;2024-02-14T12:23:06;11.60;;;9.70;;
12625;SDS011;6378;42.684;23.372;2024-02-14T12:25:32;10.87;;;9.17;;
12625;SDS011;6378;42.684;23.372;2024-02-14T12:27:59;16.27;;;10.63;;
12625;SDS011;6378;42.684;23.372;2024-02-14T12:33:22;14.40;;;9.70;;
12625;SDS011;6378;42.684;23.372;2024-02-14T12:35:50;17.77;;;10.00;;
12625;SDS011;6378;42.684;23.372;2024-02-14T12:38:17;13.40;;;8.87;;
12625;SDS011;6378;42.684;23.372;2024-02-14T12:40:45;12.47;;;9.00;;
12625;SDS011;6378;42.684;23.372;2024-02-14T12:43:11;13.00;;;9.73;;
12625;SDS011;6378;42.684;23.372;2024-02-14T12:45:38;12.67;;;9.50;;
12625;SDS011;6378;42.684;23.372;2024-02-14T12:48:05;14.07;;;10.17;;
12625;SDS011;6378;42.684;23.372;2024-02-14T12:50:33;10.50;;;8.20;;
12625;SDS011;6378;42.684;23.372;2024-02-14T12:53:00;13.77;;;8.77;;
12625;SDS011;6378;42.684;23.372;2024-02-14T12:55:25;13.70;;;9.13;;
12625;SDS011;6378;42.684;23.372;2024-02-14T12:57:53;12.33;;;8.20;;
12625;SDS011;6378;42.684;23.372;2024-02-14T13:00:19;14.57;;;9.90;;
12625;SDS011;6378;42.684;23.372;2024-02-14T13:02:46;14.17;;;10.53;;
12625;SDS011;6378;42.684;23.372;2024-02-14T13:05:13;15.27;;;9.10;;
12625;SDS011;6378;42.684;23.372;2024-02-14T13:07:39;13.20;;;9.40;;
12625;SDS011;6378;42.684;23.372;2024-02-14T13:10:05;13.73;;;9.10;;
12625;SDS011;6378;42.684;23.372;2024-02-14T13:12:31;12.80;;;9.27;;
12625;SDS011;6378;42.684;23.372;2024-02-14T13:14:56;9.90;;;7.90;;
12625;SDS011;6378;42.684;23.372;2024-02-14T13:17:22;12.87;;;8.83;;
12625;SDS011;6378;42.684;23.372;2024-02-14T13:19:48;11.37;;;8.77;;
12625;SDS011;6378;42.684;23.372;2024-02-14T13:22:14;11.13;;;8.50;;
12625;SDS011;6378;42.684;23.372;2024-02-14T13:24:41;10.33;;;7.73;;
12625;SDS011;6378;42.684;23.372;2024-02-14T13:27:07;11.53;;;8.23;;
12625;SDS011;6378;42.684;23.372;2024-02-14T13:29:33;15.40;;;8.70;;
12625;SDS011;6378;42.684;23.372;2024-02-14T13:31:58;10.53;;;8.60;;
12625;SDS011;6378;42.684;23.372;2024-02-14T13:34:26;11.57;;;9.00;;
12625;SDS011;6378;42.684;23.372;2024-02-14T13:36:52;12.43;;;9.10;;
12625;SDS011;6378;42.684;23.372;2024-02-14T13:39:17;14.13;;;8.73;;
12625;SDS011;6378;42.684;23.372;2024-02-14T13:41:43;12.93;;;8.90;;
12625;SDS011;6378;42.684;23.372;2024-02-14T13:44:09;13.20;;;8.70;;
12625;SDS011;6378;42.684;23.372;2024-02-14T13:46:36;13.03;;;8.73;;
12625;SDS011;6378;42.684;23.372;2024-02-14T13:49:02;11.07;;;8.03;;
12625;SDS011;6378;42.684;23.372;2024-02-14T13:51:27;13.73;;;8.90;;
12625;SDS011;6378;42.684;23.372;2024-02-14T13:53:53;10.90;;;8.70;;
12625;SDS011;6378;42.684;23.372;2024-02-14T13:56:19;12.07;;;9.23;;
12625;SDS011;6378;42.684;23.372;2024-02-14T13:58:48;10.93;;;8.77;;
12625;SDS011;6378;42.684;23.372;2024-02-14T14:01:15;10.87;;;8.30;;
12625;SDS011;6378;42.684;23.372;2024-02-14T14:03:41;14.27;;;9.27;;
12625;SDS011;6378;42.684;23.372;2024-02-14T14:06:06;13.93;;;8.90;;
12625;SDS011;6378;42.684;23.372;2024-02-14T14:08:34;15.53;;;8.37;;
12625;SDS011;6378;42.684;23.372;2024-02-14T14:11:02;15.27;;;9.57;;
12625;SDS011;6378;42.684;23.372;2024-02-14T14:13:28;12.77;;;8.50;;
12625;SDS011;6378;42.684;23.372;2024-02-14T14:15:58;15.40;;;9.97;;
12625;SDS011;6378;42.684;23.372;2024-02-14T14:18:24;14.87;;;9.03;;
12625;SDS011;6378;42.684;23.372;2024-02-14T14:20:49;14.07;;;9.00;;
12625;SDS011;6378;42.684;23.372;2024-02-14T14:23:15;13.73;;;9.47;;
12625;SDS011;6378;42.684;23.372;2024-02-14T14:25:41;13.53;;;9.30;;
12625;SDS011;6378;42.684;23.372;2024-02-14T14:28:06;10.00;;;8.40;;